KSANKWJF

Guest
Details From KSAN - San Diego Intl
To KWJF - General Wm J Fox Airfield
Flight Number -
Tags generated
Created
Modified
Stats Distance 131 nm / 243 km
Max Altitude 10,400 ft / 3,170 m
Waypoints 3
Social Downloads 2
Likes 0
Share VATSIM

Download

Looking for another format? Having issues loading an existing format? Contact us
Advertisement - Login to hide

Notes

Basic altitude profile: - Ascent Rate: 2500ft/min - Ascent Speed: 250kts - Cruise Altitude: 21000ft - Cruise Speed: 420kts - Descent Rate: 1500ft/min - Descent Speed: 250kts Options: - Use NATs: yes - Use PACOTS: yes - Use low airways: yes - Use high airways: yes

Route

KSAN PRADO KWJF

ID Type Via Altitude Latitude Longitude Leg Dist Tot Dist Heading (true) Name
O KSAN APT - 0 ft / 0 m 32.73356˚ -117.18966˚ - 0 nm - San Diego Intl
PRADO FIX - 10,400 ft / 3,170 m 33.92317˚ -117.78381˚ 77 nm 77 nm 338° / 337° -
O KWJF APT - 0 ft / 0 m 34.74105˚ -118.21864˚ 53 nm 131 nm 336° / 336° General Wm J Fox Airfield

Altitude Profile

Advertisement - Login to hide

KSAN

Details ICAO KSAN (SAN)
Name San Diego Intl
Region United States
Timezone America/Los_Angeles (UTC-7.0)
Stats Elevation 17 ft / 5 m (AMSL)
Location 32.733556° -117.189658°
Runways 1
Magnetic Variation 11.488° E

METAR

KSAN 201851Z 21007KT 10SM OVC027 18/13 A2997 RMK AO2 SLP148 T01780128

Decode

TAF

KSAN 201734Z 2018/2124 23005KT P6SM OVC023 FM201900 25009KT P6SM BKN025 FM210200 21006KT P6SM OVC018 FM211400 19008KT P6SM OVC022 FM212000 23010KT P6SM BKN030

Decode

Departure Runways

ID Width Length Bearing (true) Bearing (mag) Surface Threshold Offset Overrun Length
09 200 ft / 61 m 9,387 ft / 2,861 m 106.07° 94.58° Asphalt 699 ft / 213 m 269 ft / 82 m
27 200 ft / 61 m 9,387 ft / 2,861 m 286.08° 274.59° Asphalt 1,811 ft / 552 m 0 ft / 0 m

KWJF

Details ICAO KWJF
Name General Wm J Fox Airfield
Region United States
Timezone America/Los_Angeles (UTC-7.0)
Stats Elevation 2,351 ft / 717 m (AMSL)
Location 34.741048° -118.218641°
Runways 1
Magnetic Variation 12.085° E

METAR

KWJF 201856Z 22008G18KT 10SM CLR 26/05 A2986 RMK AO2 SLP096 T02610050

Decode

TAF

TAF AMD KWJF 201903Z 2019/2118 23010G20KT P6SM BKN250 FM202100 26018G28KT P6SM SCT250 FM202300 25022G32KT P6SM SCT250 FM210100 25015G25KT P6SM SKC FM210400 24014KT P6SM SKC FM211700 VRB05KT P6SM SKC

Decode

Destination Runways

ID Width Length Bearing (true) Bearing (mag) Surface Threshold Offset Overrun Length
06 151 ft / 46 m 7,188 ft / 2,191 m 71.98° 59.90° Asphalt 0 ft / 0 m 200 ft / 61 m
24 151 ft / 46 m 7,188 ft / 2,191 m 251.99° 239.91° Asphalt 0 ft / 0 m 200 ft / 61 m